sensor_id;sensor_type;location;lat;lon;timestamp;P1;durP1;ratioP1;P2;durP2;ratioP2
50906;SDS011;36882;27.680;85.304;2022-08-26T00:00:52;17.05;;;14.50;;
50906;SDS011;36882;27.680;85.304;2022-08-26T00:03:23;19.23;;;13.40;;
50906;SDS011;36882;27.680;85.304;2022-08-26T00:05:54;17.63;;;15.30;;
50906;SDS011;36882;27.680;85.304;2022-08-26T00:08:24;18.95;;;15.55;;
50906;SDS011;36882;27.680;85.304;2022-08-26T00:10:54;17.05;;;13.68;;
50906;SDS011;36882;27.680;85.304;2022-08-26T00:13:25;18.67;;;15.52;;
50906;SDS011;36882;27.680;85.304;2022-08-26T00:15:56;23.27;;;15.52;;
50906;SDS011;36882;27.680;85.304;2022-08-26T00:18:27;20.50;;;17.23;;
50906;SDS011;36882;27.680;85.304;2022-08-26T00:21:06;19.10;;;16.08;;
50906;SDS011;36882;27.680;85.304;2022-08-26T00:23:38;22.77;;;15.73;;
50906;SDS011;36882;27.680;85.304;2022-08-26T00:26:09;19.80;;;15.20;;
50906;SDS011;36882;27.680;85.304;2022-08-26T00:28:41;19.60;;;15.85;;
50906;SDS011;36882;27.680;85.304;2022-08-26T00:31:12;22.23;;;15.77;;
50906;SDS011;36882;27.680;85.304;2022-08-26T00:33:42;18.00;;;13.30;;
50906;SDS011;36882;27.680;85.304;2022-08-26T00:36:15;20.65;;;15.13;;
50906;SDS011;36882;27.680;85.304;2022-08-26T00:38:46;22.58;;;14.88;;
50906;SDS011;36882;27.680;85.304;2022-08-26T00:41:17;18.67;;;16.23;;
50906;SDS011;36882;27.680;85.304;2022-08-26T00:43:49;21.13;;;15.30;;
50906;SDS011;36882;27.680;85.304;2022-08-26T00:46:21;17.70;;;15.32;;
50906;SDS011;36882;27.680;85.304;2022-08-26T00:49:11;24.45;;;14.98;;
50906;SDS011;36882;27.680;85.304;2022-08-26T00:51:47;19.73;;;16.08;;
50906;SDS011;36882;27.680;85.304;2022-08-26T00:54:23;22.67;;;17.05;;
50906;SDS011;36882;27.680;85.304;2022-08-26T00:56:57;22.25;;;15.27;;
50906;SDS011;36882;27.680;85.304;2022-08-26T00:59:34;22.73;;;15.37;;
50906;SDS011;36882;27.680;85.304;2022-08-26T01:02:05;29.33;;;20.65;;
50906;SDS011;36882;27.680;85.304;2022-08-26T01:04:50;31.00;;;17.65;;
50906;SDS011;36882;27.680;85.304;2022-08-26T01:07:25;39.25;;;16.00;;
50906;SDS011;36882;27.680;85.304;2022-08-26T01:09:57;24.10;;;15.82;;
50906;SDS011;36882;27.680;85.304;2022-08-26T01:12:30;23.67;;;14.20;;
50906;SDS011;36882;27.680;85.304;2022-08-26T01:15:06;17.70;;;14.70;;
50906;SDS011;36882;27.680;85.304;2022-08-26T01:17:41;19.38;;;13.98;;
50906;SDS011;36882;27.680;85.304;2022-08-26T01:20:18;17.15;;;13.57;;
50906;SDS011;36882;27.680;85.304;2022-08-26T01:23:04;19.90;;;13.23;;
50906;SDS011;36882;27.680;85.304;2022-08-26T01:25:37;18.75;;;14.52;;
50906;SDS011;36882;27.680;85.304;2022-08-26T01:28:14;19.85;;;13.32;;
50906;SDS011;36882;27.680;85.304;2022-08-26T01:30:49;19.05;;;12.93;;
50906;SDS011;36882;27.680;85.304;2022-08-26T01:33:23;14.63;;;12.85;;
50906;SDS011;36882;27.680;85.304;2022-08-26T01:36:08;15.45;;;12.98;;
50906;SDS011;36882;27.680;85.304;2022-08-26T01:38:40;16.25;;;12.35;;
50906;SDS011;36882;27.680;85.304;2022-08-26T01:41:11;15.50;;;11.98;;
50906;SDS011;36882;27.680;85.304;2022-08-26T01:43:53;15.35;;;10.07;;
50906;SDS011;36882;27.680;85.304;2022-08-26T01:46:26;18.40;;;11.65;;
50906;SDS011;36882;27.680;85.304;2022-08-26T01:49:00;19.42;;;10.85;;
50906;SDS011;36882;27.680;85.304;2022-08-26T01:51:34;12.50;;;10.45;;
50906;SDS011;36882;27.680;85.304;2022-08-26T01:54:06;13.13;;;11.73;;
50906;SDS011;36882;27.680;85.304;2022-08-26T01:56:39;18.90;;;12.05;;
50906;SDS011;36882;27.680;85.304;2022-08-26T01:59:10;13.93;;;12.02;;
50906;SDS011;36882;27.680;85.304;2022-08-26T02:01:45;15.80;;;12.18;;
50906;SDS011;36882;27.680;85.304;2022-08-26T02:04:24;16.05;;;12.82;;
50906;SDS011;36882;27.680;85.304;2022-08-26T02:09:30;22.83;;;13.43;;
50906;SDS011;36882;27.680;85.304;2022-08-26T02:12:07;22.92;;;14.20;;
50906;SDS011;36882;27.680;85.304;2022-08-26T02:14:41;22.27;;;19.02;;
50906;SDS011;36882;27.680;85.304;2022-08-26T02:17:19;26.10;;;14.40;;
50906;SDS011;36882;27.680;85.304;2022-08-26T02:19:55;19.35;;;14.25;;
50906;SDS011;36882;27.680;85.304;2022-08-26T02:22:27;16.40;;;13.68;;
50906;SDS011;36882;27.680;85.304;2022-08-26T02:25:04;19.33;;;13.32;;
50906;SDS011;36882;27.680;85.304;2022-08-26T02:27:49;21.90;;;14.40;;
50906;SDS011;36882;27.680;85.304;2022-08-26T02:30:24;23.73;;;15.05;;
50906;SDS011;36882;27.680;85.304;2022-08-26T02:32:58;21.20;;;14.73;;
50906;SDS011;36882;27.680;85.304;2022-08-26T02:35:32;20.13;;;17.85;;
50906;SDS011;36882;27.680;85.304;2022-08-26T02:38:06;26.17;;;17.80;;
50906;SDS011;36882;27.680;85.304;2022-08-26T02:40:38;21.38;;;15.63;;
50906;SDS011;36882;27.680;85.304;2022-08-26T02:43:13;26.42;;;16.27;;
50906;SDS011;36882;27.680;85.304;2022-08-26T02:45:56;30.65;;;16.80;;
50906;SDS011;36882;27.680;85.304;2022-08-26T02:48:28;24.77;;;16.35;;
50906;SDS011;36882;27.680;85.304;2022-08-26T02:50:59;25.00;;;14.55;;
50906;SDS011;36882;27.680;85.304;2022-08-26T02:53:30;28.05;;;15.68;;
50906;SDS011;36882;27.680;85.304;2022-08-26T02:56:01;18.23;;;14.63;;
50906;SDS011;36882;27.680;85.304;2022-08-26T02:58:33;30.13;;;19.77;;
50906;SDS011;36882;27.680;85.304;2022-08-26T03:01:03;25.58;;;19.00;;
50906;SDS011;36882;27.680;85.304;2022-08-26T03:03:34;24.98;;;16.60;;
50906;SDS011;36882;27.680;85.304;2022-08-26T03:06:04;23.52;;;15.50;;
50906;SDS011;36882;27.680;85.304;2022-08-26T03:08:35;21.98;;;16.02;;
50906;SDS011;36882;27.680;85.304;2022-08-26T03:11:05;20.85;;;15.70;;
50906;SDS011;36882;27.680;85.304;2022-08-26T03:13:37;28.05;;;17.20;;
50906;SDS011;36882;27.680;85.304;2022-08-26T03:16:08;23.75;;;18.02;;
50906;SDS011;36882;27.680;85.304;2022-08-26T03:18:39;23.52;;;15.60;;
50906;SDS011;36882;27.680;85.304;2022-08-26T03:21:18;19.13;;;15.82;;
50906;SDS011;36882;27.680;85.304;2022-08-26T03:23:50;34.80;;;18.00;;
50906;SDS011;36882;27.680;85.304;2022-08-26T03:26:24;24.40;;;18.52;;
50906;SDS011;36882;27.680;85.304;2022-08-26T03:28:55;27.27;;;17.88;;
50906;SDS011;36882;27.680;85.304;2022-08-26T03:31:36;23.10;;;16.25;;
50906;SDS011;36882;27.680;85.304;2022-08-26T03:34:08;19.98;;;17.75;;
50906;SDS011;36882;27.680;85.304;2022-08-26T03:36:39;26.25;;;17.95;;
50906;SDS011;36882;27.680;85.304;2022-08-26T03:39:10;19.50;;;17.35;;
50906;SDS011;36882;27.680;85.304;2022-08-26T03:41:41;26.13;;;19.83;;
50906;SDS011;36882;27.680;85.304;2022-08-26T03:44:13;23.80;;;19.25;;
50906;SDS011;36882;27.680;85.304;2022-08-26T03:46:43;23.88;;;20.08;;
50906;SDS011;36882;27.680;85.304;2022-08-26T03:49:14;21.58;;;18.85;;
50906;SDS011;36882;27.680;85.304;2022-08-26T03:51:45;29.55;;;17.40;;
50906;SDS011;36882;27.680;85.304;2022-08-26T03:54:15;25.02;;;20.30;;
50906;SDS011;36882;27.680;85.304;2022-08-26T03:56:46;25.52;;;18.63;;
50906;SDS011;36882;27.680;85.304;2022-08-26T03:59:17;27.20;;;20.17;;
50906;SDS011;36882;27.680;85.304;2022-08-26T04:01:48;24.02;;;17.95;;
50906;SDS011;36882;27.680;85.304;2022-08-26T04:04:18;28.25;;;20.63;;
50906;SDS011;36882;27.680;85.304;2022-08-26T04:06:54;29.45;;;21.92;;
50906;SDS011;36882;27.680;85.304;2022-08-26T04:09:26;25.95;;;21.98;;
50906;SDS011;36882;27.680;85.304;2022-08-26T04:12:00;33.03;;;23.50;;
50906;SDS011;36882;27.680;85.304;2022-08-26T04:14:31;33.72;;;21.70;;
50906;SDS011;36882;27.680;85.304;2022-08-26T04:17:04;26.17;;;20.65;;
50906;SDS011;36882;27.680;85.304;2022-08-26T04:19:35;27.90;;;22.00;;
50906;SDS011;36882;27.680;85.304;2022-08-26T04:22:05;25.98;;;21.00;;
50906;SDS011;36882;27.680;85.304;2022-08-26T04:24:36;25.35;;;20.25;;
50906;SDS011;36882;27.680;85.304;2022-08-26T04:27:07;26.58;;;20.15;;
50906;SDS011;36882;27.680;85.304;2022-08-26T04:29:38;26.70;;;20.60;;
50906;SDS011;36882;27.680;85.304;2022-08-26T04:32:09;26.42;;;21.55;;
50906;SDS011;36882;27.680;85.304;2022-08-26T04:34:42;27.10;;;19.90;;
50906;SDS011;36882;27.680;85.304;2022-08-26T04:37:13;24.35;;;19.27;;
50906;SDS011;36882;27.680;85.304;2022-08-26T04:39:44;22.98;;;18.88;;
50906;SDS011;36882;27.680;85.304;2022-08-26T04:42:14;31.55;;;18.98;;
50906;SDS011;36882;27.680;85.304;2022-08-26T04:44:51;26.70;;;20.08;;
50906;SDS011;36882;27.680;85.304;2022-08-26T04:47:23;26.60;;;19.75;;
50906;SDS011;36882;27.680;85.304;2022-08-26T04:49:58;26.58;;;19.52;;
50906;SDS011;36882;27.680;85.304;2022-08-26T04:52:28;27.90;;;18.75;;
50906;SDS011;36882;27.680;85.304;2022-08-26T04:54:58;25.58;;;20.40;;
50906;SDS011;36882;27.680;85.304;2022-08-26T04:57:32;22.10;;;18.25;;
50906;SDS011;36882;27.680;85.304;2022-08-26T05:00:04;20.95;;;17.20;;
50906;SDS011;36882;27.680;85.304;2022-08-26T05:02:36;25.52;;;18.67;;
50906;SDS011;36882;27.680;85.304;2022-08-26T05:05:08;21.55;;;19.13;;
50906;SDS011;36882;27.680;85.304;2022-08-26T05:07:39;23.90;;;16.52;;
50906;SDS011;36882;27.680;85.304;2022-08-26T05:10:10;22.52;;;18.05;;
50906;SDS011;36882;27.680;85.304;2022-08-26T05:12:40;22.27;;;15.23;;
50906;SDS011;36882;27.680;85.304;2022-08-26T05:15:10;23.17;;;17.92;;
50906;SDS011;36882;27.680;85.304;2022-08-26T05:17:41;32.47;;;16.73;;
50906;SDS011;36882;27.680;85.304;2022-08-26T05:20:12;26.42;;;16.98;;
50906;SDS011;36882;27.680;85.304;2022-08-26T05:22:43;27.48;;;18.42;;
50906;SDS011;36882;27.680;85.304;2022-08-26T05:25:13;33.10;;;19.88;;
50906;SDS011;36882;27.680;85.304;2022-08-26T05:27:46;30.63;;;17.23;;
50906;SDS011;36882;27.680;85.304;2022-08-26T05:30:16;28.17;;;17.00;;
50906;SDS011;36882;27.680;85.304;2022-08-26T05:32:48;28.95;;;16.52;;
50906;SDS011;36882;27.680;85.304;2022-08-26T05:35:21;16.08;;;13.13;;
50906;SDS011;36882;27.680;85.304;2022-08-26T05:37:52;16.83;;;13.98;;
50906;SDS011;36882;27.680;85.304;2022-08-26T05:40:22;15.75;;;12.27;;
50906;SDS011;36882;27.680;85.304;2022-08-26T05:42:54;18.33;;;11.15;;
50906;SDS011;36882;27.680;85.304;2022-08-26T05:45:24;13.30;;;10.68;;
50906;SDS011;36882;27.680;85.304;2022-08-26T05:47:55;13.65;;;9.05;;
50906;SDS011;36882;27.680;85.304;2022-08-26T05:50:26;19.90;;;10.48;;
50906;SDS011;36882;27.680;85.304;2022-08-26T05:52:56;17.35;;;11.27;;
50906;SDS011;36882;27.680;85.304;2022-08-26T05:55:27;12.52;;;10.77;;
50906;SDS011;36882;27.680;85.304;2022-08-26T05:57:58;21.63;;;12.57;;
50906;SDS011;36882;27.680;85.304;2022-08-26T06:00:30;19.88;;;11.68;;
50906;SDS011;36882;27.680;85.304;2022-08-26T06:03:02;20.30;;;11.43;;
50906;SDS011;36882;27.680;85.304;2022-08-26T06:05:37;22.75;;;12.18;;
50906;SDS011;36882;27.680;85.304;2022-08-26T06:08:10;23.08;;;10.88;;
50906;SDS011;36882;27.680;85.304;2022-08-26T06:10:47;21.25;;;12.05;;
50906;SDS011;36882;27.680;85.304;2022-08-26T06:13:23;19.30;;;10.50;;
50906;SDS011;36882;27.680;85.304;2022-08-26T06:15:58;12.52;;;9.43;;
50906;SDS011;36882;27.680;85.304;2022-08-26T06:18:32;14.13;;;9.82;;
50906;SDS011;36882;27.680;85.304;2022-08-26T06:21:14;13.30;;;9.93;;
50906;SDS011;36882;27.680;85.304;2022-08-26T06:23:48;21.02;;;10.43;;
50906;SDS011;36882;27.680;85.304;2022-08-26T06:26:35;15.65;;;7.93;;
50906;SDS011;36882;27.680;85.304;2022-08-26T06:29:08;17.63;;;8.63;;
50906;SDS011;36882;27.680;85.304;2022-08-26T06:31:49;14.70;;;9.02;;
50906;SDS011;36882;27.680;85.304;2022-08-26T06:34:22;18.13;;;9.95;;
50906;SDS011;36882;27.680;85.304;2022-08-26T06:36:57;14.93;;;10.45;;
50906;SDS011;36882;27.680;85.304;2022-08-26T06:39:32;17.25;;;11.32;;
50906;SDS011;36882;27.680;85.304;2022-08-26T06:42:06;14.50;;;10.80;;
50906;SDS011;36882;27.680;85.304;2022-08-26T06:44:39;15.73;;;9.05;;
50906;SDS011;36882;27.680;85.304;2022-08-26T06:47:10;20.00;;;9.23;;
50906;SDS011;36882;27.680;85.304;2022-08-26T06:49:41;10.57;;;8.52;;
50906;SDS011;36882;27.680;85.304;2022-08-26T06:52:11;13.13;;;9.30;;
50906;SDS011;36882;27.680;85.304;2022-08-26T06:54:49;13.93;;;9.03;;
50906;SDS011;36882;27.680;85.304;2022-08-26T06:57:20;11.52;;;8.88;;
50906;SDS011;36882;27.680;85.304;2022-08-26T06:59:51;21.90;;;8.95;;
50906;SDS011;36882;27.680;85.304;2022-08-26T07:02:21;13.93;;;8.60;;
50906;SDS011;36882;27.680;85.304;2022-08-26T07:04:54;16.60;;;8.07;;
50906;SDS011;36882;27.680;85.304;2022-08-26T07:07:24;12.48;;;7.47;;
50906;SDS011;36882;27.680;85.304;2022-08-26T07:09:55;17.70;;;7.72;;
50906;SDS011;36882;27.680;85.304;2022-08-26T07:12:27;10.43;;;7.25;;
50906;SDS011;36882;27.680;85.304;2022-08-26T07:14:57;12.93;;;7.28;;
50906;SDS011;36882;27.680;85.304;2022-08-26T07:17:28;15.05;;;7.07;;
50906;SDS011;36882;27.680;85.304;2022-08-26T07:19:59;10.27;;;6.30;;
50906;SDS011;36882;27.680;85.304;2022-08-26T07:22:31;8.35;;;5.82;;
50906;SDS011;36882;27.680;85.304;2022-08-26T07:25:03;13.38;;;5.95;;
50906;SDS011;36882;27.680;85.304;2022-08-26T07:27:36;12.27;;;6.72;;
50906;SDS011;36882;27.680;85.304;2022-08-26T07:30:08;9.00;;;6.28;;
50906;SDS011;36882;27.680;85.304;2022-08-26T07:32:40;11.48;;;6.57;;
50906;SDS011;36882;27.680;85.304;2022-08-26T07:35:11;11.35;;;6.88;;
50906;SDS011;36882;27.680;85.304;2022-08-26T07:37:42;13.45;;;6.88;;
50906;SDS011;36882;27.680;85.304;2022-08-26T07:40:14;11.57;;;7.50;;
50906;SDS011;36882;27.680;85.304;2022-08-26T07:42:45;8.95;;;7.28;;
50906;SDS011;36882;27.680;85.304;2022-08-26T07:45:16;17.58;;;8.13;;
50906;SDS011;36882;27.680;85.304;2022-08-26T07:47:46;13.85;;;8.65;;
50906;SDS011;36882;27.680;85.304;2022-08-26T07:50:17;11.30;;;6.72;;
50906;SDS011;36882;27.680;85.304;2022-08-26T07:53:07;10.73;;;6.75;;
50906;SDS011;36882;27.680;85.304;2022-08-26T07:55:40;8.95;;;6.07;;
50906;SDS011;36882;27.680;85.304;2022-08-26T07:58:10;12.75;;;6.20;;
50906;SDS011;36882;27.680;85.304;2022-08-26T08:00:41;9.82;;;6.63;;
50906;SDS011;36882;27.680;85.304;2022-08-26T08:03:11;9.35;;;5.60;;
50906;SDS011;36882;27.680;85.304;2022-08-26T08:05:43;11.63;;;8.30;;
50906;SDS011;36882;27.680;85.304;2022-08-26T08:08:14;18.85;;;7.43;;
50906;SDS011;36882;27.680;85.304;2022-08-26T08:10:55;9.40;;;7.75;;
50906;SDS011;36882;27.680;85.304;2022-08-26T08:13:25;13.10;;;7.03;;
50906;SDS011;36882;27.680;85.304;2022-08-26T08:15:57;12.27;;;7.50;;
50906;SDS011;36882;27.680;85.304;2022-08-26T08:18:28;12.85;;;8.10;;
50906;SDS011;36882;27.680;85.304;2022-08-26T08:21:00;10.60;;;7.38;;
50906;SDS011;36882;27.680;85.304;2022-08-26T08:23:48;20.38;;;6.45;;
50906;SDS011;36882;27.680;85.304;2022-08-26T08:26:20;18.35;;;7.78;;
50906;SDS011;36882;27.680;85.304;2022-08-26T08:28:55;16.25;;;8.15;;
50906;SDS011;36882;27.680;85.304;2022-08-26T08:31:30;17.80;;;7.20;;
50906;SDS011;36882;27.680;85.304;2022-08-26T08:34:22;14.45;;;8.30;;
50906;SDS011;36882;27.680;85.304;2022-08-26T08:36:55;16.67;;;7.45;;
50906;SDS011;36882;27.680;85.304;2022-08-26T08:39:26;17.75;;;7.97;;
50906;SDS011;36882;27.680;85.304;2022-08-26T08:45:06;11.52;;;7.72;;
50906;SDS011;36882;27.680;85.304;2022-08-26T08:47:52;12.90;;;7.28;;
50906;SDS011;36882;27.680;85.304;2022-08-26T08:50:29;26.65;;;8.82;;
50906;SDS011;36882;27.680;85.304;2022-08-26T08:55:46;21.33;;;9.98;;
50906;SDS011;36882;27.680;85.304;2022-08-26T09:07:50;10.10;;;5.18;;
50906;SDS011;36882;27.680;85.304;2022-08-26T09:10:39;9.95;;;5.25;;
50906;SDS011;36882;27.680;85.304;2022-08-26T09:13:19;8.30;;;5.45;;
50906;SDS011;36882;27.680;85.304;2022-08-26T09:18:58;13.00;;;6.35;;
50906;SDS011;36882;27.680;85.304;2022-08-26T09:21:45;11.52;;;6.03;;
50906;SDS011;36882;27.680;85.304;2022-08-26T09:24:25;9.90;;;6.93;;
50906;SDS011;36882;27.680;85.304;2022-08-26T09:26:58;14.25;;;5.85;;
50906;SDS011;36882;27.680;85.304;2022-08-26T09:29:40;15.18;;;7.80;;
50906;SDS011;36882;27.680;85.304;2022-08-26T09:32:17;9.77;;;7.15;;
50906;SDS011;36882;27.680;85.304;2022-08-26T09:34:54;10.07;;;6.75;;
50906;SDS011;36882;27.680;85.304;2022-08-26T09:37:47;18.50;;;7.55;;
50906;SDS011;36882;27.680;85.304;2022-08-26T09:40:19;10.20;;;7.28;;
50906;SDS011;36882;27.680;85.304;2022-08-26T09:45:50;12.38;;;7.70;;
50906;SDS011;36882;27.680;85.304;2022-08-26T09:48:29;16.73;;;8.55;;
50906;SDS011;36882;27.680;85.304;2022-08-26T09:51:03;11.77;;;7.95;;
50906;SDS011;36882;27.680;85.304;2022-08-26T09:53:53;21.27;;;7.18;;
50906;SDS011;36882;27.680;85.304;2022-08-26T09:56:29;16.35;;;7.90;;
50906;SDS011;36882;27.680;85.304;2022-08-26T09:59:02;11.07;;;7.72;;
50906;SDS011;36882;27.680;85.304;2022-08-26T10:01:38;18.27;;;9.13;;
50906;SDS011;36882;27.680;85.304;2022-08-26T10:04:12;12.18;;;8.70;;
50906;SDS011;36882;27.680;85.304;2022-08-26T10:07:00;17.77;;;8.65;;
50906;SDS011;36882;27.680;85.304;2022-08-26T10:09:37;18.00;;;8.20;;
50906;SDS011;36882;27.680;85.304;2022-08-26T10:12:18;11.63;;;7.82;;
50906;SDS011;36882;27.680;85.304;2022-08-26T10:14:52;15.70;;;7.20;;
50906;SDS011;36882;27.680;85.304;2022-08-26T10:17:35;12.90;;;6.60;;
50906;SDS011;36882;27.680;85.304;2022-08-26T10:20:20;15.27;;;8.32;;
50906;SDS011;36882;27.680;85.304;2022-08-26T10:25:53;11.38;;;7.57;;
50906;SDS011;36882;27.680;85.304;2022-08-26T10:28:39;13.90;;;7.28;;
50906;SDS011;36882;27.680;85.304;2022-08-26T10:31:41;11.70;;;8.48;;
50906;SDS011;36882;27.680;85.304;2022-08-26T10:34:30;14.40;;;7.82;;
50906;SDS011;36882;27.680;85.304;2022-08-26T10:37:13;16.02;;;8.20;;
50906;SDS011;36882;27.680;85.304;2022-08-26T10:39:57;13.90;;;7.85;;
50906;SDS011;36882;27.680;85.304;2022-08-26T10:42:36;9.57;;;7.20;;
50906;SDS011;36882;27.680;85.304;2022-08-26T10:45:25;14.57;;;7.97;;
50906;SDS011;36882;27.680;85.304;2022-08-26T10:48:00;13.38;;;7.68;;
50906;SDS011;36882;27.680;85.304;2022-08-26T10:50:40;13.50;;;6.57;;
50906;SDS011;36882;27.680;85.304;2022-08-26T10:53:20;11.45;;;7.10;;
50906;SDS011;36882;27.680;85.304;2022-08-26T10:59:22;11.57;;;8.80;;
50906;SDS011;36882;27.680;85.304;2022-08-26T11:02:24;10.23;;;7.00;;
50906;SDS011;36882;27.680;85.304;2022-08-26T11:05:07;14.80;;;6.95;;
50906;SDS011;36882;27.680;85.304;2022-08-26T11:07:47;10.90;;;7.40;;
50906;SDS011;36882;27.680;85.304;2022-08-26T11:16:37;8.13;;;7.18;;
50906;SDS011;36882;27.680;85.304;2022-08-26T11:25:07;13.18;;;6.47;;
50906;SDS011;36882;27.680;85.304;2022-08-26T11:27:51;9.90;;;6.97;;
50906;SDS011;36882;27.680;85.304;2022-08-26T11:36:38;11.40;;;8.18;;
50906;SDS011;36882;27.680;85.304;2022-08-26T11:39:24;15.38;;;8.55;;
50906;SDS011;36882;27.680;85.304;2022-08-26T11:42:13;12.65;;;8.43;;
50906;SDS011;36882;27.680;85.304;2022-08-26T11:44:53;9.70;;;7.32;;
50906;SDS011;36882;27.680;85.304;2022-08-26T11:47:29;13.15;;;7.90;;
50906;SDS011;36882;27.680;85.304;2022-08-26T11:50:08;16.35;;;7.97;;
50906;SDS011;36882;27.680;85.304;2022-08-26T11:52:52;32.95;;;14.93;;
50906;SDS011;36882;27.680;85.304;2022-08-26T11:55:33;26.75;;;17.65;;
50906;SDS011;36882;27.680;85.304;2022-08-26T11:58:11;33.03;;;17.55;;
50906;SDS011;36882;27.680;85.304;2022-08-26T12:00:53;34.80;;;14.38;;
50906;SDS011;36882;27.680;85.304;2022-08-26T12:06:22;25.35;;;10.75;;
50906;SDS011;36882;27.680;85.304;2022-08-26T12:08:59;15.65;;;9.63;;
50906;SDS011;36882;27.680;85.304;2022-08-26T12:11:34;27.15;;;13.45;;
50906;SDS011;36882;27.680;85.304;2022-08-26T12:14:17;26.50;;;13.68;;
50906;SDS011;36882;27.680;85.304;2022-08-26T12:16:53;29.33;;;13.55;;
50906;SDS011;36882;27.680;85.304;2022-08-26T12:19:36;25.70;;;12.07;;
50906;SDS011;36882;27.680;85.304;2022-08-26T12:22:09;20.08;;;11.32;;
50906;SDS011;36882;27.680;85.304;2022-08-26T12:24:55;20.80;;;11.68;;
50906;SDS011;36882;27.680;85.304;2022-08-26T12:27:28;17.02;;;10.23;;
50906;SDS011;36882;27.680;85.304;2022-08-26T12:30:08;18.83;;;10.57;;
50906;SDS011;36882;27.680;85.304;2022-08-26T12:32:47;22.48;;;11.95;;
50906;SDS011;36882;27.680;85.304;2022-08-26T12:35:24;20.95;;;10.70;;
50906;SDS011;36882;27.680;85.304;2022-08-26T12:37:57;21.65;;;11.68;;
50906;SDS011;36882;27.680;85.304;2022-08-26T12:40:31;15.98;;;11.82;;
50906;SDS011;36882;27.680;85.304;2022-08-26T12:43:10;20.10;;;11.98;;
50906;SDS011;36882;27.680;85.304;2022-08-26T12:48:33;23.13;;;10.77;;
50906;SDS011;36882;27.680;85.304;2022-08-26T12:51:07;18.02;;;11.82;;
50906;SDS011;36882;27.680;85.304;2022-08-26T12:53:53;23.48;;;11.18;;
50906;SDS011;36882;27.680;85.304;2022-08-26T12:56:26;16.60;;;10.82;;
50906;SDS011;36882;27.680;85.304;2022-08-26T13:01:51;23.27;;;13.30;;
50906;SDS011;36882;27.680;85.304;2022-08-26T13:04:30;20.55;;;11.32;;
50906;SDS011;36882;27.680;85.304;2022-08-26T13:12:25;21.17;;;13.10;;
50906;SDS011;36882;27.680;85.304;2022-08-26T13:14:59;19.00;;;12.40;;
50906;SDS011;36882;27.680;85.304;2022-08-26T13:17:30;28.23;;;15.15;;
50906;SDS011;36882;27.680;85.304;2022-08-26T13:20:03;19.23;;;12.80;;
50906;SDS011;36882;27.680;85.304;2022-08-26T13:22:34;21.17;;;14.32;;
50906;SDS011;36882;27.680;85.304;2022-08-26T13:25:08;21.70;;;13.40;;
50906;SDS011;36882;27.680;85.304;2022-08-26T13:27:38;27.15;;;12.80;;
50906;SDS011;36882;27.680;85.304;2022-08-26T13:30:08;22.10;;;12.38;;
50906;SDS011;36882;27.680;85.304;2022-08-26T13:32:40;23.20;;;12.52;;
50906;SDS011;36882;27.680;85.304;2022-08-26T13:35:10;21.15;;;13.95;;
50906;SDS011;36882;27.680;85.304;2022-08-26T13:37:41;21.85;;;13.85;;
50906;SDS011;36882;27.680;85.304;2022-08-26T13:40:12;26.42;;;15.88;;
50906;SDS011;36882;27.680;85.304;2022-08-26T13:42:43;17.92;;;15.45;;
50906;SDS011;36882;27.680;85.304;2022-08-26T13:45:15;33.90;;;18.05;;
50906;SDS011;36882;27.680;85.304;2022-08-26T13:47:46;36.92;;;24.45;;
50906;SDS011;36882;27.680;85.304;2022-08-26T13:50:16;39.65;;;24.92;;
50906;SDS011;36882;27.680;85.304;2022-08-26T13:52:47;44.25;;;26.95;;
50906;SDS011;36882;27.680;85.304;2022-08-26T13:55:18;35.33;;;23.00;;
50906;SDS011;36882;27.680;85.304;2022-08-26T13:57:48;30.55;;;19.63;;
50906;SDS011;36882;27.680;85.304;2022-08-26T14:00:19;28.65;;;21.15;;
50906;SDS011;36882;27.680;85.304;2022-08-26T14:02:50;33.10;;;23.60;;
50906;SDS011;36882;27.680;85.304;2022-08-26T14:05:21;35.78;;;25.73;;
50906;SDS011;36882;27.680;85.304;2022-08-26T14:07:52;35.60;;;24.17;;
50906;SDS011;36882;27.680;85.304;2022-08-26T14:10:25;35.85;;;25.02;;
50906;SDS011;36882;27.680;85.304;2022-08-26T14:12:56;40.38;;;26.48;;
50906;SDS011;36882;27.680;85.304;2022-08-26T14:15:27;40.42;;;28.48;;
50906;SDS011;36882;27.680;85.304;2022-08-26T14:18:01;39.10;;;30.40;;
50906;SDS011;36882;27.680;85.304;2022-08-26T14:20:34;31.63;;;23.60;;
50906;SDS011;36882;27.680;85.304;2022-08-26T14:23:06;40.67;;;21.77;;
50906;SDS011;36882;27.680;85.304;2022-08-26T14:25:46;32.25;;;18.90;;
50906;SDS011;36882;27.680;85.304;2022-08-26T14:28:17;27.70;;;18.27;;
50906;SDS011;36882;27.680;85.304;2022-08-26T14:30:55;29.25;;;16.65;;
50906;SDS011;36882;27.680;85.304;2022-08-26T14:33:30;20.98;;;16.45;;
50906;SDS011;36882;27.680;85.304;2022-08-26T14:36:04;20.92;;;15.98;;
50906;SDS011;36882;27.680;85.304;2022-08-26T14:38:48;26.42;;;16.45;;
50906;SDS011;36882;27.680;85.304;2022-08-26T14:41:19;19.00;;;15.80;;
50906;SDS011;36882;27.680;85.304;2022-08-26T14:43:54;16.85;;;14.00;;
50906;SDS011;36882;27.680;85.304;2022-08-26T14:46:29;17.67;;;15.20;;
50906;SDS011;36882;27.680;85.304;2022-08-26T14:49:03;31.05;;;14.95;;
50906;SDS011;36882;27.680;85.304;2022-08-26T14:51:36;23.40;;;15.63;;
50906;SDS011;36882;27.680;85.304;2022-08-26T14:54:09;26.23;;;15.77;;
50906;SDS011;36882;27.680;85.304;2022-08-26T14:56:48;23.65;;;16.75;;
50906;SDS011;36882;27.680;85.304;2022-08-26T14:59:27;23.27;;;16.95;;
50906;SDS011;36882;27.680;85.304;2022-08-26T15:02:00;25.00;;;17.88;;
50906;SDS011;36882;27.680;85.304;2022-08-26T15:04:31;26.00;;;17.73;;
50906;SDS011;36882;27.680;85.304;2022-08-26T15:07:01;23.50;;;18.00;;
50906;SDS011;36882;27.680;85.304;2022-08-26T15:09:33;33.55;;;18.30;;
50906;SDS011;36882;27.680;85.304;2022-08-26T15:12:05;21.45;;;16.55;;
50906;SDS011;36882;27.680;85.304;2022-08-26T15:14:35;21.38;;;18.38;;
50906;SDS011;36882;27.680;85.304;2022-08-26T15:17:05;36.95;;;20.35;;
50906;SDS011;36882;27.680;85.304;2022-08-26T15:19:36;30.83;;;19.73;;
50906;SDS011;36882;27.680;85.304;2022-08-26T15:22:06;23.40;;;18.38;;
50906;SDS011;36882;27.680;85.304;2022-08-26T15:24:39;24.60;;;18.95;;
50906;SDS011;36882;27.680;85.304;2022-08-26T15:27:10;26.38;;;17.70;;
50906;SDS011;36882;27.680;85.304;2022-08-26T15:29:40;24.70;;;17.80;;
50906;SDS011;36882;27.680;85.304;2022-08-26T15:32:11;23.58;;;17.92;;
50906;SDS011;36882;27.680;85.304;2022-08-26T15:34:41;32.75;;;17.90;;
50906;SDS011;36882;27.680;85.304;2022-08-26T15:37:12;25.42;;;19.50;;
50906;SDS011;36882;27.680;85.304;2022-08-26T15:39:42;20.88;;;17.60;;
50906;SDS011;36882;27.680;85.304;2022-08-26T15:42:13;29.27;;;19.05;;
50906;SDS011;36882;27.680;85.304;2022-08-26T15:44:43;20.85;;;18.15;;
50906;SDS011;36882;27.680;85.304;2022-08-26T15:47:14;20.85;;;18.50;;
50906;SDS011;36882;27.680;85.304;2022-08-26T15:49:45;26.42;;;19.10;;
50906;SDS011;36882;27.680;85.304;2022-08-26T15:52:16;28.15;;;20.38;;
50906;SDS011;36882;27.680;85.304;2022-08-26T15:54:47;22.70;;;18.92;;
50906;SDS011;36882;27.680;85.304;2022-08-26T15:57:18;36.78;;;19.75;;